createdAt,value
2017-07-05T00:00:33.328Z,823.57
2017-07-05T00:01:33.983Z,823.56
2017-07-05T00:02:34.603Z,823.57
2017-07-05T00:03:35.220Z,823.55
2017-07-05T00:04:35.838Z,823.53
2017-07-05T00:05:36.456Z,823.51
2017-07-05T00:06:37.123Z,823.50
2017-07-05T00:07:37.743Z,823.48
2017-07-05T00:08:38.360Z,823.50
2017-07-05T00:09:39.037Z,823.48
2017-07-05T00:10:39.640Z,823.53
2017-07-05T00:11:40.307Z,823.52
2017-07-05T00:12:40.929Z,823.50
2017-07-05T00:13:41.544Z,823.51
2017-07-05T00:14:42.162Z,823.48
2017-07-05T00:15:42.778Z,823.52
2017-07-05T00:16:43.446Z,823.50
2017-07-05T00:17:44.067Z,823.48
2017-07-05T00:18:44.683Z,823.50
2017-07-05T00:19:45.302Z,823.48
2017-07-05T00:20:45.956Z,823.48
2017-07-05T00:21:46.624Z,823.49
2017-07-05T00:22:47.275Z,823.49
2017-07-05T00:23:47.893Z,823.49
2017-07-05T00:24:48.514Z,823.46
2017-07-05T00:25:49.130Z,823.47
2017-07-05T00:26:49.825Z,823.49
2017-07-05T00:27:50.430Z,823.49
2017-07-05T00:28:51.047Z,823.49
2017-07-05T00:29:51.665Z,823.53
2017-07-05T00:30:52.283Z,823.51
2017-07-05T00:31:52.982Z,823.53
2017-07-05T00:32:53.580Z,823.50
2017-07-05T00:33:54.198Z,823.50
2017-07-05T00:34:54.815Z,823.50
2017-07-05T00:35:55.433Z,823.48
2017-07-05T00:36:56.101Z,823.48
2017-07-05T00:37:56.718Z,823.49
2017-07-05T00:38:57.341Z,823.50
2017-07-05T00:39:57.955Z,823.49
2017-07-05T00:40:58.572Z,823.49
2017-07-05T00:41:59.239Z,823.51
2017-07-05T00:42:59.857Z,823.54
2017-07-05T00:44:00.501Z,823.50
2017-07-05T00:45:01.104Z,823.50
2017-07-05T00:46:01.729Z,823.47
2017-07-05T00:47:02.394Z,823.46
2017-07-05T00:48:03.050Z,823.51
2017-07-05T00:49:03.672Z,823.47
2017-07-05T00:50:04.283Z,823.50
2017-07-05T00:51:04.903Z,823.46
2017-07-05T00:52:05.573Z,823.48
2017-07-05T00:53:06.191Z,823.51
2017-07-05T00:54:06.809Z,823.52
2017-07-05T00:55:07.425Z,823.50
2017-07-05T00:56:08.042Z,823.52
2017-07-05T00:57:08.711Z,823.54
2017-07-05T00:58:09.328Z,823.54
2017-07-05T00:59:09.946Z,823.54
2017-07-05T01:00:10.564Z,823.56
2017-07-05T01:01:11.215Z,823.48
2017-07-05T01:02:11.886Z,823.50
2017-07-05T01:03:12.562Z,823.52
2017-07-05T01:04:13.166Z,823.48
2017-07-05T01:05:13.783Z,823.49
2017-07-05T01:06:14.400Z,823.50
2017-07-05T01:07:15.101Z,823.47
2017-07-05T01:08:15.749Z,823.49
2017-07-05T01:09:16.377Z,823.47
2017-07-05T01:10:16.981Z,823.47
2017-07-05T01:11:17.599Z,823.50
2017-07-05T01:12:18.294Z,823.48
2017-07-05T01:13:18.898Z,823.48
2017-07-05T01:14:19.516Z,823.47
2017-07-05T01:15:20.141Z,823.49
2017-07-05T01:16:20.755Z,823.49
2017-07-05T01:17:21.423Z,823.52
2017-07-05T01:18:22.039Z,823.53
2017-07-05T01:19:22.658Z,823.52
2017-07-05T01:20:23.281Z,823.54
2017-07-05T01:21:23.897Z,823.53
2017-07-05T01:22:24.562Z,823.52
2017-07-05T01:23:25.187Z,823.55
2017-07-05T01:24:25.803Z,823.50
2017-07-05T01:25:26.418Z,823.51
2017-07-05T01:26:27.036Z,823.48
2017-07-05T01:27:27.702Z,823.50
2017-07-05T01:28:28.353Z,823.47
2017-07-05T01:29:28.975Z,823.45
2017-07-05T01:30:29.591Z,823.46
2017-07-05T01:31:30.209Z,823.43
2017-07-05T01:32:30.910Z,823.42
2017-07-05T01:33:31.530Z,823.39
2017-07-05T01:34:32.146Z,823.40
2017-07-05T01:35:32.763Z,823.42
2017-07-05T01:36:33.387Z,823.40
2017-07-05T01:37:34.051Z,823.38
2017-07-05T01:38:34.669Z,823.39
2017-07-05T01:39:35.286Z,823.38
2017-07-05T01:40:35.902Z,823.39
2017-07-05T01:41:36.521Z,823.40
2017-07-05T01:42:37.215Z,823.36
2017-07-05T01:43:37.818Z,823.37
2017-07-05T01:44:38.437Z,823.35
2017-07-05T01:45:39.056Z,823.37
2017-07-05T01:46:39.672Z,823.36
2017-07-05T01:47:40.342Z,823.37
2017-07-05T01:48:40.973Z,823.36
2017-07-05T01:49:41.579Z,823.38
2017-07-05T01:50:42.195Z,823.38
2017-07-05T01:51:42.814Z,823.38
2017-07-05T01:52:43.511Z,823.35
2017-07-05T01:53:44.129Z,823.36
2017-07-05T01:54:44.759Z,823.33
2017-07-05T01:55:45.374Z,823.34
2017-07-05T01:56:45.995Z,823.39
2017-07-05T01:57:46.695Z,823.31
2017-07-05T01:58:47.312Z,823.35
2017-07-05T01:59:47.929Z,823.30
2017-07-05T02:00:48.545Z,823.30
2017-07-05T02:01:49.164Z,823.31
2017-07-05T02:02:49.833Z,823.28
2017-07-05T02:03:50.451Z,823.25
2017-07-05T02:04:51.068Z,823.29
2017-07-05T02:05:51.711Z,823.29
2017-07-05T02:06:52.364Z,823.29
2017-07-05T02:07:53.031Z,823.24
2017-07-05T02:08:53.654Z,823.28
2017-07-05T02:09:54.271Z,823.26
2017-07-05T02:10:54.885Z,823.28
2017-07-05T02:11:55.506Z,823.31
2017-07-05T02:12:56.172Z,823.29
2017-07-05T02:13:56.792Z,823.28
2017-07-05T02:14:57.449Z,823.28
2017-07-05T02:15:58.096Z,823.29
2017-07-05T02:16:58.716Z,823.28
2017-07-05T02:17:59.383Z,823.26
2017-07-05T02:19:00.000Z,823.25
2017-07-05T02:20:00.616Z,823.27
2017-07-05T02:21:01.240Z,823.28
2017-07-05T02:22:01.860Z,823.25
2017-07-05T02:23:02.524Z,823.25
2017-07-05T02:24:03.141Z,823.25
2017-07-05T02:25:03.756Z,823.24
2017-07-05T02:26:04.375Z,823.23
2017-07-05T02:27:05.024Z,823.21
2017-07-05T02:28:05.694Z,823.23
2017-07-05T02:29:06.311Z,823.23
2017-07-05T02:30:06.927Z,823.23
2017-07-05T02:31:07.544Z,823.22
2017-07-05T02:32:08.161Z,823.19
2017-07-05T02:33:08.829Z,823.20
2017-07-05T02:34:09.452Z,823.17
2017-07-05T02:35:10.066Z,823.20
2017-07-05T02:36:10.683Z,823.19
2017-07-05T02:37:11.300Z,823.21
2017-07-05T02:38:11.969Z,823.18
2017-07-05T02:39:12.590Z,823.17
2017-07-05T02:40:13.206Z,823.16
2017-07-05T02:41:13.822Z,823.16
2017-07-05T02:42:14.463Z,823.13
2017-07-05T02:43:15.117Z,823.15
2017-07-05T02:44:15.734Z,823.14
2017-07-05T02:45:16.350Z,823.16
2017-07-05T02:46:16.968Z,823.11
2017-07-05T02:47:17.592Z,823.13
2017-07-05T02:48:18.255Z,823.11
2017-07-05T02:49:18.873Z,823.13
2017-07-05T02:50:19.491Z,823.11
2017-07-05T02:51:20.107Z,823.11
2017-07-05T02:52:20.758Z,823.13
2017-07-05T02:53:21.424Z,823.14
2017-07-05T02:54:22.042Z,823.12
2017-07-05T02:55:22.660Z,823.11
2017-07-05T02:56:23.308Z,823.11
2017-07-05T02:57:23.925Z,823.11
2017-07-05T02:58:24.617Z,823.14
2017-07-05T02:59:25.222Z,823.09
2017-07-05T03:00:25.840Z,823.10
2017-07-05T03:01:26.457Z,823.09
2017-07-05T03:02:27.075Z,823.10
2017-07-05T03:03:27.741Z,823.05
2017-07-05T03:04:28.358Z,823.03
2017-07-05T03:05:28.976Z,823.06
2017-07-05T03:06:29.622Z,823.04
2017-07-05T03:07:30.226Z,823.02
2017-07-05T03:08:30.894Z,823.07
2017-07-05T03:09:31.513Z,823.04
2017-07-05T03:10:32.129Z,823.07
2017-07-05T03:11:32.745Z,823.06
2017-07-05T03:12:33.396Z,823.05
2017-07-05T03:13:34.065Z,823.06
2017-07-05T03:14:34.681Z,823.06
2017-07-05T03:15:35.301Z,823.05
2017-07-05T03:16:35.945Z,823.03
2017-07-05T03:17:36.552Z,823.02
2017-07-05T03:18:37.215Z,823.02
2017-07-05T03:19:37.833Z,823.05
2017-07-05T03:20:38.449Z,823.00
2017-07-05T03:21:39.066Z,823.00
2017-07-05T03:22:39.716Z,823.00
2017-07-05T03:23:40.390Z,822.99
2017-07-05T03:24:41.004Z,823.02
2017-07-05T03:25:41.622Z,823.01
2017-07-05T03:26:42.266Z,822.99
2017-07-05T03:27:42.904Z,823.01
2017-07-05T03:28:43.582Z,822.99
2017-07-05T03:29:44.185Z,822.98
2017-07-05T03:30:44.802Z,823.01
2017-07-05T03:31:45.419Z,822.98
2017-07-05T03:32:46.035Z,822.94
2017-07-05T03:33:46.703Z,822.97
2017-07-05T03:34:47.344Z,822.97
2017-07-05T03:35:47.950Z,822.97
2017-07-05T03:36:48.568Z,823.00
2017-07-05T03:37:49.225Z,822.98
2017-07-05T03:38:49.921Z,823.00
2017-07-05T03:39:50.521Z,822.95
2017-07-05T03:40:51.137Z,822.99
2017-07-05T03:41:51.757Z,822.95
2017-07-05T03:42:52.380Z,822.93
2017-07-05T03:43:52.994Z,822.97
2017-07-05T03:44:53.611Z,822.95
2017-07-05T03:45:54.234Z,822.94
2017-07-05T03:46:54.848Z,822.93
2017-07-05T03:47:55.467Z,822.94
2017-07-05T03:48:56.151Z,822.95
2017-07-05T03:49:56.750Z,822.92
2017-07-05T03:50:57.398Z,822.90
2017-07-05T03:51:58.014Z,822.91
2017-07-05T03:52:58.631Z,822.93
2017-07-05T03:53:59.300Z,822.91
2017-07-05T03:54:59.917Z,822.92
2017-07-05T03:56:00.538Z,822.95
2017-07-05T03:57:01.155Z,822.94
2017-07-05T03:58:01.773Z,822.93
2017-07-05T03:59:02.442Z,822.95
2017-07-05T04:00:03.059Z,822.92
2017-07-05T04:01:03.678Z,822.93
2017-07-05T04:02:04.296Z,822.96
2017-07-05T04:03:04.912Z,823.00
2017-07-05T04:04:05.582Z,822.99
2017-07-05T04:05:06.200Z,823.01
2017-07-05T04:06:06.848Z,823.01
2017-07-05T04:07:07.493Z,823.02
2017-07-05T04:08:08.131Z,823.05
2017-07-05T04:09:08.832Z,823.04
2017-07-05T04:10:09.451Z,823.06
2017-07-05T04:11:10.068Z,823.06
2017-07-05T04:12:10.745Z,823.04
2017-07-05T04:13:11.356Z,823.06
2017-07-05T04:14:12.026Z,823.09
2017-07-05T04:15:12.677Z,823.07
2017-07-05T04:16:13.303Z,823.06
2017-07-05T04:17:13.916Z,823.11
2017-07-05T04:18:14.563Z,823.09
2017-07-05T04:19:15.213Z,823.11
2017-07-05T04:20:15.837Z,823.09
2017-07-05T04:21:16.457Z,823.14
2017-07-05T04:22:17.079Z,823.14
2017-07-05T04:23:17.693Z,823.16
2017-07-05T04:24:18.393Z,823.10
2017-07-05T04:25:19.011Z,823.15
2017-07-05T04:26:19.665Z,823.13
2017-07-05T04:27:20.280Z,823.16
2017-07-05T04:28:20.903Z,823.15
2017-07-05T04:29:21.574Z,823.19
2017-07-05T04:30:22.188Z,823.18
2017-07-05T04:31:22.839Z,823.19
2017-07-05T04:32:23.491Z,823.19
2017-07-05T04:33:24.108Z,823.19
2017-07-05T04:34:24.774Z,823.16
2017-07-05T04:35:25.393Z,823.19
2017-07-05T04:36:26.035Z,823.16
2017-07-05T04:37:26.639Z,823.18
2017-07-05T04:38:27.323Z,823.20
2017-07-05T04:39:28.005Z,823.19
2017-07-05T04:40:28.608Z,823.17
2017-07-05T04:41:29.226Z,823.19
2017-07-05T04:42:29.875Z,823.17
2017-07-05T04:43:30.504Z,823.17
2017-07-05T04:44:31.190Z,823.19
2017-07-05T04:45:31.794Z,823.18
2017-07-05T04:46:32.412Z,823.19
2017-07-05T04:47:33.063Z,823.20
2017-07-05T04:48:33.664Z,823.21
2017-07-05T04:49:34.332Z,823.20
2017-07-05T04:50:34.985Z,823.21
2017-07-05T04:51:35.632Z,823.23
2017-07-05T04:52:36.251Z,823.22
2017-07-05T04:53:36.868Z,823.24
2017-07-05T04:54:37.539Z,823.27
2017-07-05T04:55:38.158Z,823.22
2017-07-05T04:56:38.785Z,823.24
2017-07-05T04:57:39.397Z,823.25
2017-07-05T04:58:40.015Z,823.22
2017-07-05T04:59:40.686Z,823.28
2017-07-05T05:00:41.305Z,823.29
2017-07-05T05:01:41.925Z,823.28
2017-07-05T05:02:42.538Z,823.27
2017-07-05T05:03:43.164Z,823.28
2017-07-05T05:04:43.828Z,823.25
2017-07-05T05:05:44.448Z,823.24
2017-07-05T05:06:45.073Z,823.23
2017-07-05T05:07:45.684Z,823.25
2017-07-05T05:08:46.303Z,823.26
2017-07-05T05:09:46.996Z,823.26
2017-07-05T05:10:47.602Z,823.28
2017-07-05T05:11:48.247Z,823.25
2017-07-05T05:12:48.883Z,823.29
2017-07-05T05:13:49.485Z,823.34
2017-07-05T05:14:50.155Z,823.32
2017-07-05T05:15:50.804Z,823.31
2017-07-05T05:16:51.419Z,823.33
2017-07-05T05:17:52.037Z,823.32
2017-07-05T05:18:52.687Z,823.31
2017-07-05T05:19:53.306Z,823.30
2017-07-05T05:20:53.925Z,823.33
2017-07-05T05:21:54.544Z,823.32
2017-07-05T05:22:55.186Z,823.31
2017-07-05T05:23:55.821Z,823.32
2017-07-05T05:24:56.477Z,823.31
2017-07-05T05:25:57.093Z,823.32
2017-07-05T05:26:57.713Z,823.33
2017-07-05T05:27:58.354Z,823.33
2017-07-05T05:28:59.004Z,823.33
2017-07-05T05:29:59.674Z,823.32
2017-07-05T05:31:00.295Z,823.31
2017-07-05T05:32:00.913Z,823.33
2017-07-05T05:33:01.529Z,823.30
2017-07-05T05:34:02.146Z,823.33
2017-07-05T05:35:02.817Z,823.32
2017-07-05T05:36:03.435Z,823.34
2017-07-05T05:37:04.052Z,823.30
2017-07-05T05:38:04.671Z,823.32
2017-07-05T05:39:05.292Z,823.30
2017-07-05T05:40:05.962Z,823.31
2017-07-05T05:41:06.579Z,823.31
2017-07-05T05:42:07.202Z,823.34
2017-07-05T05:43:07.821Z,823.28
2017-07-05T05:44:08.472Z,823.25
2017-07-05T05:45:09.141Z,823.31
2017-07-05T05:46:09.790Z,823.28
2017-07-05T05:47:10.409Z,823.30
2017-07-05T05:48:11.068Z,823.31
2017-07-05T05:49:11.677Z,823.32
2017-07-05T05:50:12.344Z,823.31
2017-07-05T05:51:12.964Z,823.30
2017-07-05T05:52:13.642Z,823.31
2017-07-05T05:53:14.317Z,823.32
2017-07-05T05:54:14.925Z,823.30
2017-07-05T05:55:15.629Z,823.31
2017-07-05T05:56:16.247Z,823.31
2017-07-05T05:57:16.890Z,823.30
2017-07-05T05:58:17.572Z,823.29
2017-07-05T05:59:18.250Z,823.28
2017-07-05T06:00:18.929Z,823.33
2017-07-05T06:01:19.536Z,823.33
2017-07-05T06:02:20.186Z,823.31
2017-07-05T06:03:20.794Z,823.32
2017-07-05T06:04:21.412Z,823.32
2017-07-05T06:05:22.080Z,823.28
2017-07-05T06:06:22.698Z,823.31
2017-07-05T06:07:23.316Z,823.29
2017-07-05T06:08:23.932Z,823.30
2017-07-05T06:09:24.552Z,823.29
2017-07-05T06:10:25.220Z,823.32
2017-07-05T06:11:25.838Z,823.29
2017-07-05T06:12:26.457Z,823.31
2017-07-05T06:13:27.100Z,823.30
2017-07-05T06:14:27.712Z,823.31
2017-07-05T06:15:28.383Z,823.29
2017-07-05T06:16:29.003Z,823.37
2017-07-05T06:17:29.626Z,823.37
2017-07-05T06:18:30.242Z,823.36
2017-07-05T06:19:30.866Z,823.37
2017-07-05T06:20:31.536Z,823.38
2017-07-05T06:21:32.194Z,823.39
2017-07-05T06:22:32.813Z,823.37
2017-07-05T06:23:33.430Z,823.37
2017-07-05T06:24:34.049Z,823.35
2017-07-05T06:25:34.722Z,823.39
2017-07-05T06:26:35.341Z,823.41
2017-07-05T06:27:35.961Z,823.40
2017-07-05T06:28:36.579Z,823.39
2017-07-05T06:29:37.207Z,823.36
2017-07-05T06:30:37.874Z,823.39
2017-07-05T06:31:38.520Z,823.38
2017-07-05T06:32:39.127Z,823.41
2017-07-05T06:33:39.949Z,823.42
2017-07-05T06:34:40.566Z,823.41
2017-07-05T06:35:41.263Z,823.44
2017-07-05T06:36:41.917Z,823.42
2017-07-05T06:37:42.535Z,823.41
2017-07-05T06:38:43.155Z,823.41
2017-07-05T06:39:43.808Z,823.41
2017-07-05T06:40:44.478Z,823.40
2017-07-05T06:41:45.104Z,823.38
2017-07-05T06:42:45.721Z,823.41
2017-07-05T06:43:46.341Z,823.38
2017-07-05T06:44:46.981Z,823.37
2017-07-05T06:45:47.632Z,823.41
2017-07-05T06:46:48.258Z,823.41
2017-07-05T06:47:48.875Z,823.44
2017-07-05T06:48:49.503Z,823.41
2017-07-05T06:49:50.124Z,823.41
2017-07-05T06:50:50.788Z,823.43
2017-07-05T06:51:51.409Z,823.38
2017-07-05T06:52:52.036Z,823.41
2017-07-05T06:53:52.653Z,823.39
2017-07-05T06:54:53.275Z,823.39
2017-07-05T06:55:53.943Z,823.38
2017-07-05T06:56:54.563Z,823.37
2017-07-05T06:57:55.186Z,823.38
2017-07-05T06:58:55.803Z,823.39
2017-07-05T06:59:56.455Z,823.41
2017-07-05T07:00:57.135Z,823.35
2017-07-05T07:01:57.744Z,823.38
2017-07-05T07:02:58.363Z,823.38
2017-07-05T07:03:58.984Z,823.39
2017-07-05T07:04:59.629Z,823.40
2017-07-05T07:06:00.288Z,823.40
2017-07-05T07:07:00.909Z,823.39
2017-07-05T07:08:01.531Z,823.37
2017-07-05T07:09:02.184Z,823.38
2017-07-05T07:10:02.838Z,823.40
2017-07-05T07:11:03.514Z,823.40
2017-07-05T07:12:04.163Z,823.40
2017-07-05T07:13:04.786Z,823.36
2017-07-05T07:14:05.406Z,823.38
2017-07-05T07:15:06.052Z,823.38
2017-07-05T07:16:06.712Z,823.39
2017-07-05T07:17:07.365Z,823.39
2017-07-05T07:18:08.018Z,823.37
2017-07-05T07:19:08.625Z,823.36
2017-07-05T07:20:09.449Z,823.37
2017-07-05T07:21:10.119Z,823.37
2017-07-05T07:22:10.745Z,823.39
2017-07-05T07:23:11.398Z,823.40
2017-07-05T07:24:12.079Z,823.38
2017-07-05T07:25:12.689Z,823.40
2017-07-05T07:26:13.360Z,823.39
2017-07-05T07:27:13.980Z,823.37
2017-07-05T07:28:14.603Z,823.37
2017-07-05T07:29:15.223Z,823.39
2017-07-05T07:30:15.846Z,823.37
2017-07-05T07:31:16.516Z,823.36
2017-07-05T07:32:17.137Z,823.36
2017-07-05T07:33:17.757Z,823.34
2017-07-05T07:34:18.380Z,823.35
2017-07-05T07:35:19.003Z,823.33
2017-07-05T07:36:19.677Z,823.34
2017-07-05T07:37:20.302Z,823.34
2017-07-05T07:38:20.959Z,823.32
2017-07-05T07:39:21.580Z,823.31
2017-07-05T07:40:22.203Z,823.30
2017-07-05T07:41:22.877Z,823.30
2017-07-05T07:42:23.496Z,823.32
2017-07-05T07:43:24.143Z,823.31
2017-07-05T07:44:24.779Z,823.29
2017-07-05T07:45:25.386Z,823.32
2017-07-05T07:46:26.060Z,823.33
2017-07-05T07:47:26.679Z,823.36
2017-07-05T07:48:27.300Z,823.31
2017-07-05T07:49:27.921Z,823.33
2017-07-05T07:50:28.542Z,823.31
2017-07-05T07:51:29.217Z,823.34
2017-07-05T07:52:29.842Z,823.35
2017-07-05T07:53:30.459Z,823.35
2017-07-05T07:54:31.082Z,823.35
2017-07-05T07:55:31.736Z,823.36
2017-07-05T07:56:32.391Z,823.35
2017-07-05T07:57:33.013Z,823.34
2017-07-05T07:58:33.634Z,823.36
2017-07-05T07:59:34.255Z,823.36
2017-07-05T08:00:34.877Z,823.37
2017-07-05T08:01:35.550Z,823.31
2017-07-05T08:02:36.174Z,823.33
2017-07-05T08:03:36.796Z,823.36
2017-07-05T08:04:37.451Z,823.35
2017-07-05T08:05:38.074Z,823.33
2017-07-05T08:06:38.781Z,823.37
2017-07-05T08:07:39.408Z,823.34
2017-07-05T08:08:40.032Z,823.37
2017-07-05T08:09:40.653Z,823.36
2017-07-05T08:10:41.275Z,823.33
2017-07-05T08:11:41.954Z,823.36
2017-07-05T08:12:42.574Z,823.32
2017-07-05T08:13:43.196Z,823.34
2017-07-05T08:14:43.819Z,823.32
2017-07-05T08:15:44.498Z,823.32
2017-07-05T08:16:45.159Z,823.31
2017-07-05T08:17:45.782Z,823.31
2017-07-05T08:18:46.407Z,823.29
2017-07-05T08:19:47.028Z,823.31
2017-07-05T08:20:47.682Z,823.31
2017-07-05T08:21:48.357Z,823.31
2017-07-05T08:22:48.979Z,823.28
2017-07-05T08:23:49.603Z,823.26
2017-07-05T08:24:50.226Z,823.28
2017-07-05T08:25:50.882Z,823.27
2017-07-05T08:26:51.555Z,823.29
2017-07-05T08:27:52.180Z,823.31
2017-07-05T08:28:52.803Z,823.26
2017-07-05T08:29:53.427Z,823.31
2017-07-05T08:30:54.076Z,823.29
2017-07-05T08:31:54.736Z,823.27
2017-07-05T08:32:55.359Z,823.26
2017-07-05T08:33:55.987Z,823.30
2017-07-05T08:34:56.604Z,823.29
2017-07-05T08:35:57.234Z,823.26
2017-07-05T08:36:57.906Z,823.29
2017-07-05T08:37:58.528Z,823.31
2017-07-05T08:38:59.153Z,823.30
2017-07-05T08:39:59.774Z,823.32
2017-07-05T08:41:00.397Z,823.31
2017-07-05T08:42:01.070Z,823.30
2017-07-05T08:43:01.693Z,823.27
2017-07-05T08:44:02.323Z,823.28
2017-07-05T08:45:02.943Z,823.26
2017-07-05T08:46:03.625Z,823.25
2017-07-05T08:47:04.285Z,823.24
2017-07-05T08:48:04.914Z,823.25
2017-07-05T08:49:05.532Z,823.26
2017-07-05T08:50:06.156Z,823.26
2017-07-05T08:51:06.778Z,823.25
2017-07-05T08:52:07.452Z,823.27
2017-07-05T08:53:08.075Z,823.26
2017-07-05T08:54:08.764Z,823.30
2017-07-05T08:55:09.370Z,823.29
2017-07-05T08:56:09.993Z,823.28
2017-07-05T08:57:10.673Z,823.29
2017-07-05T08:58:11.293Z,823.25
2017-07-05T08:59:11.917Z,823.29
2017-07-05T09:00:12.542Z,823.29
2017-07-05T09:01:13.166Z,823.26
2017-07-05T09:02:13.841Z,823.26
2017-07-05T09:03:14.465Z,823.27
2017-07-05T09:04:15.121Z,823.24
2017-07-05T09:05:15.752Z,823.24
2017-07-05T09:06:16.379Z,823.26
2017-07-05T09:07:17.048Z,823.26
2017-07-05T09:08:17.674Z,823.29
2017-07-05T09:09:18.299Z,823.28
2017-07-05T09:10:18.920Z,823.25
2017-07-05T09:11:19.547Z,823.25
2017-07-05T09:12:20.248Z,823.23
2017-07-05T09:13:20.936Z,823.28
2017-07-05T09:14:21.550Z,823.26
2017-07-05T09:15:22.170Z,823.23
2017-07-05T09:16:22.828Z,823.26
2017-07-05T09:17:23.508Z,823.26
2017-07-05T09:18:24.130Z,823.26
2017-07-05T09:19:24.787Z,823.26
2017-07-05T09:20:25.413Z,823.26
2017-07-05T09:21:26.070Z,823.27
2017-07-05T09:22:26.747Z,823.27
2017-07-05T09:23:27.370Z,823.23
2017-07-05T09:24:28.006Z,823.28
2017-07-05T09:25:28.623Z,823.28
2017-07-05T09:26:29.244Z,823.25
2017-07-05T09:27:29.942Z,823.25
2017-07-05T09:28:30.557Z,823.30
2017-07-05T09:29:31.178Z,823.25
2017-07-05T09:30:31.827Z,823.27
2017-07-05T09:31:32.425Z,823.24
2017-07-05T09:32:33.125Z,823.26
2017-07-05T09:33:33.736Z,823.29
2017-07-05T09:34:34.389Z,823.23
2017-07-05T09:35:34.999Z,823.22
2017-07-05T09:36:35.628Z,823.24
2017-07-05T09:37:36.300Z,823.22
2017-07-05T09:38:36.925Z,823.24
2017-07-05T09:39:37.581Z,823.25
2017-07-05T09:40:38.206Z,823.21
2017-07-05T09:41:38.831Z,823.23
2017-07-05T09:42:39.514Z,823.24
2017-07-05T09:43:40.153Z,823.24
2017-07-05T09:44:40.773Z,823.29
2017-07-05T09:45:41.405Z,823.27
2017-07-05T09:46:42.022Z,823.29
2017-07-05T09:47:42.697Z,823.28
2017-07-05T09:48:43.324Z,823.26
2017-07-05T09:49:43.945Z,823.19
2017-07-05T09:50:44.570Z,823.16
2017-07-05T09:51:45.202Z,823.19
2017-07-05T09:52:45.873Z,823.19
2017-07-05T09:53:46.497Z,823.21
2017-07-05T09:54:47.123Z,823.19
2017-07-05T09:55:47.749Z,823.21
2017-07-05T09:56:48.377Z,823.22
2017-07-05T09:57:49.053Z,823.17
2017-07-05T09:58:49.678Z,823.18
2017-07-05T09:59:50.328Z,823.22
2017-07-05T10:00:50.941Z,823.25
2017-07-05T10:01:51.565Z,823.22
2017-07-05T10:02:52.267Z,823.18
2017-07-05T10:03:52.916Z,823.21
2017-07-05T10:04:53.563Z,823.20
2017-07-05T10:05:54.189Z,823.18
2017-07-05T10:06:54.846Z,823.19
2017-07-05T10:07:55.536Z,823.19
2017-07-05T10:08:56.170Z,823.21
2017-07-05T10:09:56.783Z,823.18
2017-07-05T10:10:57.407Z,823.21
2017-07-05T10:11:58.036Z,823.19
2017-07-05T10:12:58.714Z,823.18
2017-07-05T10:13:59.341Z,823.20
2017-07-05T10:14:59.969Z,823.22
2017-07-05T10:16:00.590Z,823.18
2017-07-05T10:17:01.216Z,823.15
2017-07-05T10:18:01.897Z,823.18
2017-07-05T10:19:02.517Z,823.18
2017-07-05T10:20:03.150Z,823.15
2017-07-05T10:21:03.771Z,823.19
2017-07-05T10:22:04.430Z,823.22
2017-07-05T10:23:05.104Z,823.20
2017-07-05T10:24:05.730Z,823.19
2017-07-05T10:25:06.357Z,823.21
2017-07-05T10:26:07.007Z,823.18
2017-07-05T10:27:07.621Z,823.14
2017-07-05T10:28:08.297Z,823.16
2017-07-05T10:29:08.953Z,823.17
2017-07-05T10:30:09.564Z,823.14
2017-07-05T10:31:10.191Z,823.18
2017-07-05T10:32:10.814Z,823.15
2017-07-05T10:33:11.489Z,823.13
2017-07-05T10:34:12.120Z,823.12
2017-07-05T10:35:12.746Z,823.16
2017-07-05T10:36:13.373Z,823.14
2017-07-05T10:37:14.021Z,823.14
2017-07-05T10:38:14.710Z,823.15
2017-07-05T10:39:15.323Z,823.16
2017-07-05T10:40:15.982Z,823.15
2017-07-05T10:41:16.591Z,823.18
2017-07-05T10:42:17.221Z,823.18
2017-07-05T10:43:17.901Z,823.11
2017-07-05T10:44:18.525Z,823.13
2017-07-05T10:45:19.154Z,823.13
2017-07-05T10:46:19.781Z,823.13
2017-07-05T10:47:20.446Z,823.07
2017-07-05T10:48:21.117Z,823.10
2017-07-05T10:49:21.773Z,823.04
2017-07-05T10:50:22.396Z,823.06
2017-07-05T10:51:23.051Z,823.08
2017-07-05T10:52:23.651Z,823.04
2017-07-05T10:53:24.329Z,823.06
2017-07-05T10:54:24.959Z,823.02
2017-07-05T10:55:25.583Z,822.93
2017-07-05T10:56:26.207Z,822.92
2017-07-05T10:57:26.840Z,822.92
2017-07-05T10:58:27.512Z,822.91
2017-07-05T10:59:28.137Z,822.88
2017-07-05T11:00:28.763Z,822.88
2017-07-05T11:01:29.392Z,822.92
2017-07-05T11:02:30.045Z,822.91
2017-07-05T11:03:30.756Z,822.96
2017-07-05T11:04:31.383Z,822.94
2017-07-05T11:05:32.008Z,822.92
2017-07-05T11:06:32.637Z,822.84
2017-07-05T11:07:33.293Z,822.93
2017-07-05T11:08:33.952Z,822.90
2017-07-05T11:09:34.582Z,822.97
2017-07-05T11:10:35.209Z,822.98
2017-07-05T11:11:35.836Z,822.93
2017-07-05T11:12:36.493Z,822.97
2017-07-05T11:13:37.174Z,822.85
2017-07-05T11:14:37.798Z,822.93
2017-07-05T11:15:38.424Z,822.94
2017-07-05T11:16:39.049Z,822.93
2017-07-05T11:17:39.678Z,822.94
2017-07-05T11:18:40.354Z,822.88
2017-07-05T11:19:40.980Z,822.91
2017-07-05T11:20:41.611Z,822.85
2017-07-05T11:21:42.236Z,822.91
2017-07-05T11:22:42.862Z,822.85
2017-07-05T11:23:43.538Z,822.86
2017-07-05T11:24:44.166Z,822.84
2017-07-05T11:25:44.795Z,822.80
2017-07-05T11:26:45.454Z,822.84
2017-07-05T11:27:46.118Z,822.81
2017-07-05T11:28:46.798Z,822.81
2017-07-05T11:29:47.423Z,822.82
2017-07-05T11:30:48.049Z,822.81
2017-07-05T11:31:48.676Z,822.80
2017-07-05T11:32:49.336Z,822.78
2017-07-05T11:33:50.012Z,822.82
2017-07-05T11:34:50.640Z,822.71
2017-07-05T11:35:51.266Z,822.78
2017-07-05T11:36:51.898Z,822.80
2017-07-05T11:37:52.522Z,822.78
2017-07-05T11:38:53.199Z,822.78
2017-07-05T11:39:53.827Z,822.86
2017-07-05T11:40:54.453Z,822.86
2017-07-05T11:41:55.115Z,822.82
2017-07-05T11:42:55.743Z,822.79
2017-07-05T11:43:56.447Z,822.79
2017-07-05T11:44:57.060Z,822.79
2017-07-05T11:45:57.745Z,822.75
2017-07-05T11:46:58.360Z,822.78
2017-07-05T11:47:58.985Z,822.68
2017-07-05T11:48:59.661Z,822.77
2017-07-05T11:50:00.287Z,822.72
2017-07-05T11:51:00.914Z,822.73
2017-07-05T11:52:01.540Z,822.69
2017-07-05T11:53:02.168Z,822.75
2017-07-05T11:54:02.796Z,822.73
2017-07-05T11:55:03.421Z,822.73
2017-07-05T11:56:04.055Z,822.70
2017-07-05T11:57:04.729Z,822.83
2017-07-05T11:58:05.351Z,822.82
2017-07-05T11:59:06.025Z,822.73
2017-07-05T12:00:06.651Z,822.77
2017-07-05T12:01:07.285Z,822.69
2017-07-05T12:02:07.911Z,822.73
2017-07-05T12:03:08.538Z,822.70
2017-07-05T12:04:09.215Z,822.82
2017-07-05T12:05:09.876Z,822.79
2017-07-05T12:06:10.505Z,822.71
2017-07-05T12:07:11.132Z,822.69
2017-07-05T12:08:11.764Z,822.73
2017-07-05T12:09:12.441Z,822.70
2017-07-05T12:10:13.069Z,822.75
2017-07-05T12:11:13.697Z,822.77
2017-07-05T12:12:14.326Z,822.79
2017-07-05T12:13:14.988Z,822.76
2017-07-05T12:14:15.870Z,822.76
2017-07-05T12:15:16.503Z,822.67
2017-07-05T12:16:17.167Z,822.73
2017-07-05T12:17:17.794Z,822.68
2017-07-05T12:18:18.447Z,822.71
2017-07-05T12:19:19.113Z,822.69
2017-07-05T12:20:19.768Z,822.65
2017-07-05T12:21:20.384Z,822.64
2017-07-05T12:22:21.014Z,822.70
2017-07-05T12:23:21.674Z,822.76
2017-07-05T12:24:22.363Z,822.74
2017-07-05T12:25:23.003Z,822.64
2017-07-05T12:26:23.618Z,822.74
2017-07-05T12:27:24.247Z,822.71
2017-07-05T12:28:24.875Z,822.78
2017-07-05T12:29:25.555Z,822.73
2017-07-05T12:30:26.184Z,822.74
2017-07-05T12:31:26.815Z,822.82
2017-07-05T12:32:27.442Z,822.69
2017-07-05T12:33:28.068Z,822.73
2017-07-05T12:34:28.751Z,822.59
2017-07-05T12:35:29.382Z,822.66
2017-07-05T12:36:30.034Z,822.72